Time;durP1;ratioP1;P1;durP2;ratioP2;P2;SDS_P1;SDS_P2;PMS_P1;PMS_P2;Temp;Humidity;BMP_temperature;BMP_pressure;BME280_temperature;BME280_humidity;BME280_pressure;Samples;Min_cycle;Max_cycle;Signal;HPM_P1;HPM_P2
2021/04/26 00:01:10;;;;;;;;;;;5.70;99.90;;;;;;5089602;28;20044;-73
2021/04/26 00:03:36;;;;;;;;;;;5.60;99.90;;;;;;5094403;28;20288;-73
2021/04/26 00:06:01;;;;;;;;;;;5.60;99.90;;;;;;5095343;28;19911;-73
2021/04/26 00:08:27;;;;;;;;;;;5.60;99.90;;;;;;5092980;28;19915;-73
2021/04/26 00:10:52;;;;;;;;;;;5.60;99.90;;;;;;5091211;28;20288;-73
2021/04/26 00:13:18;;;;;;;;;;;5.50;99.90;;;;;;5092018;28;19951;-73
2021/04/26 00:15:44;;;;;;;;;;;5.50;99.90;;;;;;5074987;28;19908;-74
2021/04/26 00:18:10;;;;;;;;;;;5.60;99.90;;;;;;5088950;28;20326;-73
2021/04/26 00:20:35;;;;;;;;;;;5.60;99.90;;;;;;5093739;28;19923;-74
2021/04/26 00:23:01;;;;;;;;;;;5.60;99.90;;;;;;5082536;28;19908;-73
2021/04/26 00:25:27;;;;;;;;;;;5.50;99.90;;;;;;5081752;28;19908;-73
2021/04/26 00:27:53;;;;;;;;;;;5.50;99.90;;;;;;5092602;28;20364;-73
2021/04/26 00:30:19;;;;;;;;;;;5.60;99.90;;;;;;5074831;28;19911;-74
2021/04/26 00:32:45;;;;;;;;;;;5.60;99.90;;;;;;5074831;28;19948;-74
2021/04/26 00:35:11;;;;;;;;;;;5.50;99.90;;;;;;5093674;28;20407;-73
2021/04/26 00:37:37;;;;;;;;;;;5.50;99.90;;;;;;5093968;28;19908;-74
2021/04/26 00:40:03;;;;;;;;;;;5.50;99.90;;;;;;5085800;28;19919;-74
2021/04/26 00:42:29;;;;;;;;;;;5.40;99.90;;;;;;5094858;28;19908;-74
2021/04/26 00:44:54;;;;;;;;;;;5.40;99.90;;;;;;5095238;28;20254;-74
2021/04/26 00:47:20;;;;;;;;;;;5.40;99.90;;;;;;5093323;28;19908;-74
2021/04/26 00:49:45;;;;;;;;;;;5.40;99.90;;;;;;5090532;28;20007;-74
2021/04/26 00:52:10;;;;;;;;;;;5.40;99.90;;;;;;5089552;28;19969;-75
2021/04/26 00:54:36;;;;;;;;;;;5.40;99.90;;;;;;5095586;28;19908;-74
2021/04/26 00:57:02;;;;;;;;;;;5.40;99.90;;;;;;5106504;28;19915;-74
2021/04/26 00:59:28;;;;;;;;;;;5.40;99.90;;;;;;5112571;28;19908;-74
2021/04/26 01:01:53;;;;;;;;;;;5.40;99.90;;;;;;5101448;28;19912;-74
2021/04/26 01:04:19;;;;;;;;;;;5.30;99.90;;;;;;5094860;28;19927;-74
2021/04/26 01:06:44;;;;;;;;;;;5.30;99.90;;;;;;5115164;28;19900;-73
2021/04/26 01:09:10;;;;;;;;;;;5.30;99.90;;;;;;5105233;28;19900;-73
2021/04/26 01:11:47;;;;;;;;;;;5.20;99.90;;;;;;5094173;28;19912;-72
2021/04/26 01:14:25;;;;;;;;;;;5.20;99.90;;;;;;5093651;28;19912;-73
2021/04/26 01:16:55;;;;;;;;;;;5.10;99.90;;;;;;5093354;28;19915;-73
2021/04/26 01:19:26;;;;;;;;;;;5.10;99.90;;;;;;5075458;28;19904;-73
2021/04/26 01:22:06;;;;;;;;;;;5.20;99.90;;;;;;5090594;28;19918;-73
2021/04/26 01:24:38;;;;;;;;;;;5.10;99.90;;;;;;5079466;28;19909;-73
2021/04/26 01:27:04;;;;;;;;;;;5.10;99.90;;;;;;5084556;28;19908;-73
2021/04/26 01:29:39;;;;;;;;;;;5.10;99.90;;;;;;5094254;28;20415;-74
2021/04/26 01:32:05;;;;;;;;;;;5.00;99.90;;;;;;5092138;28;19908;-73
2021/04/26 01:34:31;;;;;;;;;;;5.00;99.90;;;;;;5093759;28;19911;-74
2021/04/26 01:36:56;;;;;;;;;;;5.00;99.90;;;;;;5093790;28;19912;-73
2021/04/26 01:39:22;;;;;;;;;;;5.00;99.90;;;;;;5093003;28;20022;-73
2021/04/26 01:41:48;;;;;;;;;;;4.90;99.90;;;;;;5077195;28;19913;-73
2021/04/26 01:44:16;;;;;;;;;;;4.90;99.90;;;;;;5077305;28;19931;-74
2021/04/26 01:46:42;;;;;;;;;;;4.90;99.90;;;;;;5089916;28;19910;-73
2021/04/26 01:49:08;;;;;;;;;;;4.90;99.90;;;;;;5084570;28;20010;-73
2021/04/26 01:51:33;;;;;;;;;;;4.90;99.90;;;;;;5080780;28;19970;-73
2021/04/26 01:54:00;;;;;;;;;;;4.80;99.90;;;;;;5078309;28;19916;-73
2021/04/26 01:56:25;;;;;;;;;;;4.80;99.90;;;;;;5093531;28;19907;-73
2021/04/26 01:58:51;;;;;;;;;;;4.80;99.90;;;;;;5093630;28;19905;-74
2021/04/26 02:01:21;;;;;;;;;;;4.80;99.90;;;;;;5092978;28;19912;-72
2021/04/26 02:03:52;;;;;;;;;;;4.70;99.90;;;;;;5091878;28;19966;-72
2021/04/26 02:06:18;;;;;;;;;;;4.70;99.90;;;;;;5092259;28;19930;-72
2021/04/26 02:08:43;;;;;;;;;;;4.70;99.90;;;;;;5092917;28;19908;-73
2021/04/26 02:11:11;;;;;;;;;;;4.60;99.90;;;;;;5091729;28;19915;-73
2021/04/26 02:13:37;;;;;;;;;;;4.60;99.90;;;;;;5093520;28;19915;-72
2021/04/26 02:16:02;;;;;;;;;;;4.60;99.90;;;;;;5092278;28;19908;-73
2021/04/26 02:18:28;;;;;;;;;;;4.60;99.90;;;;;;5091555;28;19908;-73
2021/04/26 02:20:53;;;;;;;;;;;4.60;99.90;;;;;;5086963;28;19913;-73
2021/04/26 02:23:19;;;;;;;;;;;4.70;99.90;;;;;;5093150;28;19969;-73
2021/04/26 02:25:44;;;;;;;;;;;4.60;99.90;;;;;;5081181;28;19999;-73
2021/04/26 02:28:10;;;;;;;;;;;4.60;99.90;;;;;;5084806;28;19994;-73
2021/04/26 02:30:35;;;;;;;;;;;4.60;99.90;;;;;;5077683;28;20034;-73
2021/04/26 02:33:08;;;;;;;;;;;4.60;99.90;;;;;;5095111;28;19908;-73
2021/04/26 02:35:38;;;;;;;;;;;4.60;99.90;;;;;;5109377;28;19904;-74
2021/04/26 02:38:04;;;;;;;;;;;4.70;99.90;;;;;;5116673;28;19908;-72
2021/04/26 02:40:38;;;;;;;;;;;4.60;99.90;;;;;;5114972;28;19920;-72
2021/04/26 02:43:04;;;;;;;;;;;4.60;99.90;;;;;;5118115;28;19907;-73
2021/04/26 02:45:31;;;;;;;;;;;4.60;99.90;;;;;;5114291;28;19968;-73
2021/04/26 02:47:56;;;;;;;;;;;4.60;99.90;;;;;;5099634;28;19912;-72
2021/04/26 02:50:26;;;;;;;;;;;4.60;99.90;;;;;;5107317;28;19916;-72
2021/04/26 02:52:51;;;;;;;;;;;4.60;99.90;;;;;;5078678;28;19911;-73
2021/04/26 02:55:19;;;;;;;;;;;4.60;99.90;;;;;;5079168;28;19908;-72
2021/04/26 02:57:44;;;;;;;;;;;4.60;99.90;;;;;;5090323;28;20352;-73
2021/04/26 03:00:11;;;;;;;;;;;4.60;99.90;;;;;;5085228;28;20008;-73
2021/04/26 03:02:37;;;;;;;;;;;4.60;99.90;;;;;;5087918;28;19917;-73
2021/04/26 03:05:04;;;;;;;;;;;4.60;99.90;;;;;;5075397;28;19908;-73
2021/04/26 03:07:30;;;;;;;;;;;4.60;99.90;;;;;;5083988;28;19930;-73
2021/04/26 03:09:56;;;;;;;;;;;4.60;99.90;;;;;;5079835;28;19916;-73
2021/04/26 03:12:22;;;;;;;;;;;4.60;99.90;;;;;;5093288;28;19908;-72
2021/04/26 03:14:48;;;;;;;;;;;4.60;99.90;;;;;;5095261;28;20379;-72
2021/04/26 03:17:14;;;;;;;;;;;4.60;99.90;;;;;;5095823;28;19908;-72
2021/04/26 03:19:40;;;;;;;;;;;4.60;99.90;;;;;;5095850;28;20018;-73
2021/04/26 03:22:06;;;;;;;;;;;4.60;99.90;;;;;;5096132;28;19912;-72
2021/04/26 03:24:32;;;;;;;;;;;4.50;99.90;;;;;;5095265;28;19911;-72
2021/04/26 03:26:59;;;;;;;;;;;4.50;99.90;;;;;;5094663;28;19908;-73
2021/04/26 03:29:25;;;;;;;;;;;4.40;99.90;;;;;;5095798;28;20359;-73
2021/04/26 03:31:51;;;;;;;;;;;4.40;99.90;;;;;;5094063;28;19915;-73
2021/04/26 03:34:17;;;;;;;;;;;4.30;99.90;;;;;;5094868;28;19990;-73
2021/04/26 03:36:43;;;;;;;;;;;4.30;99.90;;;;;;5095680;28;19912;-73
2021/04/26 03:39:09;;;;;;;;;;;4.30;99.90;;;;;;5094717;28;19911;-73
2021/04/26 03:41:36;;;;;;;;;;;4.30;99.90;;;;;;5095783;28;20224;-73
2021/04/26 03:44:02;;;;;;;;;;;4.30;99.90;;;;;;5095230;28;19930;-73
2021/04/26 03:46:28;;;;;;;;;;;4.30;99.90;;;;;;5093619;28;19908;-73
2021/04/26 03:48:53;;;;;;;;;;;4.30;99.90;;;;;;5094273;28;19908;-72
2021/04/26 03:51:18;;;;;;;;;;;4.30;99.90;;;;;;5094515;28;19999;-73
2021/04/26 03:53:44;;;;;;;;;;;4.30;99.90;;;;;;5095206;28;19904;-72
2021/04/26 03:56:09;;;;;;;;;;;4.30;99.90;;;;;;5083054;28;20418;-72
2021/04/26 03:58:35;;;;;;;;;;;4.20;99.90;;;;;;5077004;28;19908;-72
2021/04/26 04:01:00;;;;;;;;;;;4.30;99.90;;;;;;5094307;28;20010;-73
2021/04/26 04:03:26;;;;;;;;;;;4.20;99.90;;;;;;5094242;28;20011;-74
2021/04/26 04:05:52;;;;;;;;;;;4.20;99.90;;;;;;5085748;28;19959;-74
2021/04/26 04:08:18;;;;;;;;;;;4.20;99.90;;;;;;5097129;28;19912;-72
2021/04/26 04:10:43;;;;;;;;;;;4.30;99.90;;;;;;5096337;28;19908;-73
2021/04/26 04:13:09;;;;;;;;;;;4.30;99.90;;;;;;5083973;28;20395;-73
2021/04/26 04:15:34;;;;;;;;;;;4.30;99.90;;;;;;5098399;28;19915;-73
2021/04/26 04:18:00;;;;;;;;;;;4.20;99.90;;;;;;5094824;28;19919;-72
2021/04/26 04:20:25;;;;;;;;;;;4.20;99.90;;;;;;5097430;28;19916;-73
2021/04/26 04:22:51;;;;;;;;;;;4.10;99.90;;;;;;5095479;28;19907;-73
2021/04/26 04:25:16;;;;;;;;;;;4.10;99.90;;;;;;5093078;28;19915;-73
2021/04/26 04:27:44;;;;;;;;;;;4.10;99.90;;;;;;5074613;28;19950;-73
2021/04/26 04:30:11;;;;;;;;;;;4.10;99.90;;;;;;5090917;28;20348;-73
2021/04/26 04:32:36;;;;;;;;;;;4.10;99.90;;;;;;5092343;28;19908;-72
2021/04/26 04:35:02;;;;;;;;;;;4.10;99.90;;;;;;5092013;28;19973;-72
2021/04/26 04:37:28;;;;;;;;;;;4.10;99.90;;;;;;5074375;28;20054;-72
2021/04/26 04:39:53;;;;;;;;;;;4.20;99.90;;;;;;5086702;28;19943;-73
2021/04/26 04:42:19;;;;;;;;;;;4.20;99.90;;;;;;5094379;28;19912;-73
2021/04/26 04:44:44;;;;;;;;;;;4.20;99.90;;;;;;5094589;28;19998;-73
2021/04/26 04:47:10;;;;;;;;;;;4.30;99.90;;;;;;5093379;28;19908;-73
2021/04/26 04:49:35;;;;;;;;;;;4.20;99.90;;;;;;5093239;28;20401;-73
2021/04/26 04:52:01;;;;;;;;;;;4.20;99.90;;;;;;5080752;28;19909;-73
2021/04/26 04:54:26;;;;;;;;;;;4.20;99.90;;;;;;5082369;28;20337;-72
2021/04/26 04:56:52;;;;;;;;;;;4.20;99.90;;;;;;5092775;28;19951;-73
2021/04/26 04:59:19;;;;;;;;;;;4.20;99.90;;;;;;5093230;28;19994;-73
2021/04/26 05:01:45;;;;;;;;;;;4.20;99.90;;;;;;5090908;28;19930;-73
2021/04/26 05:04:11;;;;;;;;;;;4.20;99.90;;;;;;5092586;28;20303;-73
2021/04/26 05:06:36;;;;;;;;;;;4.30;99.90;;;;;;5084848;28;20310;-73
2021/04/26 05:09:02;;;;;;;;;;;4.40;99.90;;;;;;5092083;28;19937;-74
2021/04/26 05:11:27;;;;;;;;;;;4.30;99.90;;;;;;5092553;28;19919;-74
2021/04/26 05:13:53;;;;;;;;;;;4.50;99.90;;;;;;5077384;28;19908;-74
2021/04/26 05:16:18;;;;;;;;;;;4.50;99.90;;;;;;5086802;28;19908;-74
2021/04/26 05:18:44;;;;;;;;;;;4.70;99.90;;;;;;5092035;28;20370;-74
2021/04/26 05:21:09;;;;;;;;;;;4.70;99.90;;;;;;5092926;28;19915;-74
2021/04/26 05:23:35;;;;;;;;;;;4.80;99.90;;;;;;5091911;28;19916;-74
2021/04/26 05:26:00;;;;;;;;;;;4.80;99.90;;;;;;5078949;28;19908;-74
2021/04/26 05:28:26;;;;;;;;;;;4.80;99.90;;;;;;5087995;28;19946;-73
2021/04/26 05:30:51;;;;;;;;;;;4.80;99.90;;;;;;5089257;28;20249;-74
2021/04/26 05:33:17;;;;;;;;;;;4.90;99.90;;;;;;5092264;28;19912;-73
2021/04/26 05:35:43;;;;;;;;;;;5.00;99.90;;;;;;5090934;28;19951;-73
2021/04/26 05:38:09;;;;;;;;;;;5.00;99.90;;;;;;5093265;28;20003;-73
2021/04/26 05:40:34;;;;;;;;;;;5.10;99.90;;;;;;5089894;28;19916;-73
2021/04/26 05:43:00;;;;;;;;;;;5.20;99.90;;;;;;5080774;28;20306;-72
2021/04/26 05:45:25;;;;;;;;;;;5.20;99.90;;;;;;5093888;28;19904;-72
2021/04/26 05:47:51;;;;;;;;;;;5.30;99.90;;;;;;5095192;28;19960;-72
2021/04/26 05:50:16;;;;;;;;;;;5.30;99.90;;;;;;5100779;28;20259;-73
2021/04/26 05:52:42;;;;;;;;;;;5.40;99.90;;;;;;5110477;28;19912;-72
2021/04/26 05:55:08;;;;;;;;;;;5.40;99.90;;;;;;5113178;28;19911;-72
2021/04/26 05:57:33;;;;;;;;;;;5.50;99.90;;;;;;5113312;28;19904;-73
2021/04/26 05:59:59;;;;;;;;;;;5.60;99.90;;;;;;5116781;28;19927;-73
2021/04/26 06:02:24;;;;;;;;;;;5.70;99.90;;;;;;5115305;28;19927;-72
2021/04/26 06:04:49;;;;;;;;;;;5.80;99.90;;;;;;5111375;28;19946;-71
2021/04/26 06:07:15;;;;;;;;;;;5.90;99.90;;;;;;5099818;28;19934;-72
2021/04/26 06:09:41;;;;;;;;;;;5.90;99.90;;;;;;5095484;28;19908;-73
2021/04/26 06:12:06;;;;;;;;;;;6.10;99.90;;;;;;5098379;28;19933;-73
2021/04/26 06:14:32;;;;;;;;;;;6.10;99.90;;;;;;5098445;28;19911;-73
2021/04/26 06:16:57;;;;;;;;;;;6.10;99.90;;;;;;5097866;28;19908;-72
2021/04/26 06:19:23;;;;;;;;;;;6.20;99.90;;;;;;5095946;28;19915;-73
2021/04/26 06:21:48;;;;;;;;;;;6.30;99.90;;;;;;5097842;28;20292;-73
2021/04/26 06:24:14;;;;;;;;;;;6.40;99.90;;;;;;5097243;28;19917;-73
2021/04/26 06:26:39;;;;;;;;;;;6.50;99.90;;;;;;5097018;28;20326;-73
2021/04/26 06:29:05;;;;;;;;;;;6.70;99.90;;;;;;5095743;28;19907;-73
2021/04/26 06:31:30;;;;;;;;;;;6.90;99.90;;;;;;5096762;28;19908;-73
2021/04/26 06:33:56;;;;;;;;;;;7.00;99.90;;;;;;5097164;28;19908;-73
2021/04/26 06:36:21;;;;;;;;;;;7.20;99.90;;;;;;5095537;28;19953;-73
2021/04/26 06:38:47;;;;;;;;;;;7.20;99.90;;;;;;5096831;28;19915;-72
2021/04/26 06:41:12;;;;;;;;;;;7.30;99.90;;;;;;5096877;28;19916;-73
2021/04/26 06:43:38;;;;;;;;;;;7.50;99.90;;;;;;5097051;28;19908;-73
2021/04/26 06:46:03;;;;;;;;;;;7.50;99.90;;;;;;5096954;28;19957;-73
2021/04/26 06:48:29;;;;;;;;;;;7.70;99.90;;;;;;5096605;28;19998;-73
2021/04/26 06:50:56;;;;;;;;;;;7.80;99.90;;;;;;5095719;28;20354;-73
2021/04/26 06:53:22;;;;;;;;;;;7.80;99.90;;;;;;5096007;28;20264;-73
2021/04/26 06:55:47;;;;;;;;;;;7.70;99.90;;;;;;5095253;28;19908;-73
2021/04/26 06:58:13;;;;;;;;;;;7.70;99.90;;;;;;5096000;28;19915;-74
2021/04/26 07:00:38;;;;;;;;;;;7.70;99.90;;;;;;5096307;28;19919;-74
2021/04/26 07:03:05;;;;;;;;;;;7.80;99.90;;;;;;5097105;28;19998;-74
2021/04/26 07:05:31;;;;;;;;;;;7.80;99.90;;;;;;5098381;28;19953;-73
2021/04/26 07:07:56;;;;;;;;;;;7.80;99.90;;;;;;5095774;28;19912;-73
2021/04/26 07:10:22;;;;;;;;;;;8.00;99.90;;;;;;5096132;28;19958;-73
2021/04/26 07:12:48;;;;;;;;;;;8.10;99.90;;;;;;5096305;28;20252;-73
2021/04/26 07:15:17;;;;;;;;;;;8.30;99.90;;;;;;5096104;28;19934;-73
2021/04/26 07:17:42;;;;;;;;;;;8.50;99.90;;;;;;5094735;28;19912;-72
2021/04/26 07:20:09;;;;;;;;;;;8.60;99.90;;;;;;5095854;28;19931;-73
2021/04/26 07:22:34;;;;;;;;;;;8.80;99.90;;;;;;5096244;28;20364;-73
2021/04/26 07:25:00;;;;;;;;;;;9.00;99.90;;;;;;5094469;28;19953;-74
2021/04/26 07:27:25;;;;;;;;;;;9.00;99.90;;;;;;5096950;28;20249;-73
2021/04/26 07:29:51;;;;;;;;;;;9.00;99.90;;;;;;5095642;28;19908;-73
2021/04/26 07:32:17;;;;;;;;;;;9.00;99.90;;;;;;5097565;28;19915;-73
2021/04/26 07:34:42;;;;;;;;;;;9.00;99.90;;;;;;5098088;28;19961;-74
2021/04/26 07:37:08;;;;;;;;;;;9.10;99.90;;;;;;5099970;28;20352;-75
2021/04/26 07:39:33;;;;;;;;;;;9.10;99.90;;;;;;5111698;28;19908;-74
2021/04/26 07:41:59;;;;;;;;;;;9.20;99.90;;;;;;5115752;28;19920;-74
2021/04/26 07:44:26;;;;;;;;;;;9.40;99.90;;;;;;5115831;28;19919;-75
2021/04/26 07:46:52;;;;;;;;;;;9.40;99.90;;;;;;5110130;28;19982;-74
2021/04/26 07:49:18;;;;;;;;;;;9.60;99.90;;;;;;5127712;28;19919;-72
2021/04/26 07:51:43;;;;;;;;;;;9.60;99.90;;;;;;5117370;28;19912;-73
2021/04/26 07:54:08;;;;;;;;;;;9.80;99.90;;;;;;5113788;28;19927;-73
2021/04/26 07:56:35;;;;;;;;;;;9.80;99.90;;;;;;5104019;28;19907;-71
2021/04/26 07:59:00;;;;;;;;;;;9.90;99.90;;;;;;5092110;28;19948;-71
2021/04/26 08:01:26;;;;;;;;;;;10.10;99.90;;;;;;5095831;28;20527;-72
2021/04/26 08:03:51;;;;;;;;;;;10.10;99.90;;;;;;5095158;28;20364;-72
2021/04/26 08:06:17;;;;;;;;;;;10.00;99.90;;;;;;5093872;28;19927;-73
2021/04/26 08:08:42;;;;;;;;;;;10.00;99.90;;;;;;5091407;28;19912;-72
2021/04/26 08:11:08;;;;;;;;;;;10.10;99.90;;;;;;5093877;28;19966;-71
2021/04/26 08:13:33;;;;;;;;;;;10.20;99.90;;;;;;5092978;28;20372;-71
2021/04/26 08:15:59;;;;;;;;;;;10.20;99.90;;;;;;5092198;28;19908;-71
2021/04/26 08:18:25;;;;;;;;;;;10.40;99.90;;;;;;5088681;28;20045;-75
2021/04/26 08:20:51;;;;;;;;;;;10.30;99.90;;;;;;5093664;28;19915;-72
2021/04/26 08:23:16;;;;;;;;;;;10.20;99.90;;;;;;5094960;28;19935;-72
2021/04/26 08:25:42;;;;;;;;;;;10.30;99.90;;;;;;5093660;28;19912;-72
2021/04/26 08:28:07;;;;;;;;;;;10.60;99.90;;;;;;5094870;28;19935;-72
2021/04/26 08:30:33;;;;;;;;;;;10.90;99.90;;;;;;5094873;28;19999;-71
2021/04/26 08:32:58;;;;;;;;;;;11.00;99.30;;;;;;5094808;28;19918;-72
2021/04/26 08:35:24;;;;;;;;;;;11.20;98.40;;;;;;5092170;28;19912;-72
2021/04/26 08:37:49;;;;;;;;;;;11.30;98.30;;;;;;5094699;28;19999;-72
2021/04/26 08:40:15;;;;;;;;;;;11.50;98.60;;;;;;5094622;28;20324;-72
2021/04/26 08:42:41;;;;;;;;;;;11.60;98.00;;;;;;5093276;28;20284;-72
2021/04/26 08:45:07;;;;;;;;;;;11.90;97.50;;;;;;5093634;28;19908;-71
2021/04/26 08:47:32;;;;;;;;;;;11.80;97.80;;;;;;5094674;28;19951;-71
2021/04/26 08:49:58;;;;;;;;;;;11.70;96.50;;;;;;5094509;28;19919;-71
2021/04/26 08:52:24;;;;;;;;;;;12.00;96.40;;;;;;5093143;28;19911;-71
2021/04/26 08:54:50;;;;;;;;;;;12.30;95.80;;;;;;5094498;28;20416;-71
2021/04/26 08:57:15;;;;;;;;;;;12.20;95.60;;;;;;5093233;28;20049;-70
2021/04/26 08:59:43;;;;;;;;;;;12.30;95.70;;;;;;5094403;28;19961;-71
2021/04/26 09:02:09;;;;;;;;;;;12.50;95.20;;;;;;5093030;28;19955;-71
2021/04/26 09:04:35;;;;;;;;;;;12.60;95.20;;;;;;5093655;28;19912;-73
2021/04/26 09:07:03;;;;;;;;;;;13.10;94.90;;;;;;5094259;28;19943;-73
2021/04/26 09:09:39;;;;;;;;;;;13.20;94.50;;;;;;5093473;28;20308;-71
2021/04/26 09:12:06;;;;;;;;;;;13.30;94.40;;;;;;5094157;28;19908;-72
2021/04/26 09:14:39;;;;;;;;;;;13.10;95.30;;;;;;5093105;28;19908;-72
2021/04/26 09:17:23;;;;;;;;;;;12.90;95.30;;;;;;5093310;28;19908;-71
2021/04/26 09:19:48;;;;;;;;;;;13.30;94.20;;;;;;5091303;28;19912;-71
2021/04/26 09:22:14;;;;;;;;;;;13.80;93.70;;;;;;5091937;28;20275;-72
2021/04/26 09:24:39;;;;;;;;;;;13.80;92.70;;;;;;5093097;28;19953;-73
2021/04/26 09:27:10;;;;;;;;;;;13.60;93.10;;;;;;5092549;28;20367;-71
2021/04/26 09:29:35;;;;;;;;;;;13.90;92.60;;;;;;5092216;28;19916;-72
2021/04/26 09:32:10;;;;;;;;;;;14.70;92.30;;;;;;5092781;28;19927;-71
2021/04/26 09:34:37;;;;;;;;;;;15.30;90.90;;;;;;5091655;28;19907;-70
2021/04/26 09:37:08;;;;;;;;;;;15.60;90.90;;;;;;5087746;28;20294;-69
2021/04/26 09:39:35;;;;;;;;;;;15.70;90.50;;;;;;5109694;28;20292;-76
2021/04/26 09:42:01;;;;;;;;;;;15.70;89.20;;;;;;5096789;28;19934;-74
2021/04/26 09:44:26;;;;;;;;;;;15.70;89.60;;;;;;5110472;28;19968;-74
2021/04/26 09:46:52;;;;;;;;;;;15.90;89.00;;;;;;5116279;28;19908;-74
2021/04/26 09:49:22;;;;;;;;;;;15.70;89.10;;;;;;5115531;28;19946;-73
2021/04/26 09:51:52;;;;;;;;;;;16.00;88.30;;;;;;5116424;28;19963;-73
2021/04/26 09:54:33;;;;;;;;;;;16.40;87.60;;;;;;5115823;28;19911;-73
2021/04/26 09:56:59;;;;;;;;;;;16.40;87.20;;;;;;5113549;28;19902;-74
2021/04/26 09:59:25;;;;;;;;;;;15.40;88.00;;;;;;5115444;28;20352;-73
2021/04/26 10:01:51;;;;;;;;;;;15.20;89.40;;;;;;5113748;28;19920;-74
2021/04/26 10:04:16;;;;;;;;;;;14.70;90.00;;;;;;5126764;28;19926;-71
2021/04/26 10:06:42;;;;;;;;;;;15.00;88.90;;;;;;5091535;28;19912;-76
2021/04/26 10:09:08;;;;;;;;;;;14.90;89.80;;;;;;5096957;28;19908;-75
2021/04/26 10:11:34;;;;;;;;;;;14.80;88.70;;;;;;5093077;28;19998;-75
2021/04/26 10:14:02;;;;;;;;;;;14.80;88.60;;;;;;5088256;28;19954;-75
2021/04/26 10:16:46;;;;;;;;;;;15.10;88.10;;;;;;5088709;28;19908;-75
2021/04/26 10:19:15;;;;;;;;;;;15.10;87.80;;;;;;5092649;28;19998;-76
2021/04/26 10:21:51;;;;;;;;;;;15.20;87.70;;;;;;5091470;28;19955;-75
2021/04/26 10:24:18;;;;;;;;;;;15.20;87.30;;;;;;5091436;28;20391;-75
2021/04/26 10:26:48;;;;;;;;;;;14.80;88.00;;;;;;5090751;28;19908;-74
2021/04/26 10:29:26;;;;;;;;;;;14.40;90.20;;;;;;5091643;28;20306;-73
2021/04/26 10:31:59;;;;;;;;;;;14.30;88.20;;;;;;5084462;28;19913;-74
2021/04/26 10:34:25;;;;;;;;;;;14.10;89.20;;;;;;5088028;28;19947;-74
2021/04/26 10:36:54;;;;;;;;;;;13.80;90.70;;;;;;5092762;28;20383;-73
2021/04/26 10:39:21;;;;;;;;;;;14.10;90.10;;;;;;5091356;28;19915;-74
2021/04/26 10:41:47;;;;;;;;;;;14.20;90.50;;;;;;5091892;28;19912;-74
2021/04/26 10:44:13;;;;;;;;;;;14.10;89.90;;;;;;5082177;28;19912;-75
2021/04/26 10:46:38;;;;;;;;;;;14.00;91.00;;;;;;5092110;28;19953;-74
2021/04/26 10:49:05;;;;;;;;;;;13.80;90.50;;;;;;5092901;28;20352;-73
2021/04/26 10:51:31;;;;;;;;;;;14.00;90.60;;;;;;5092328;28;20292;-73
2021/04/26 10:53:57;;;;;;;;;;;14.00;90.70;;;;;;5095680;28;19976;-71
2021/04/26 10:56:27;;;;;;;;;;;13.90;90.40;;;;;;5096646;28;19991;-74
2021/04/26 10:59:11;;;;;;;;;;;13.70;90.90;;;;;;5096000;28;20375;-73
2021/04/26 11:01:43;;;;;;;;;;;13.60;91.60;;;;;;5091129;28;19919;-73
2021/04/26 11:04:08;;;;;;;;;;;13.70;90.40;;;;;;5092081;28;19923;-73
2021/04/26 11:06:34;;;;;;;;;;;13.40;90.90;;;;;;5092912;28;20275;-71
2021/04/26 11:09:33;;;;;;;;;;;13.30;90.90;;;;;;5091413;28;19908;-70
2021/04/26 11:11:59;;;;;;;;;;;13.30;90.10;;;;;;5089936;28;20421;-71
2021/04/26 11:14:26;;;;;;;;;;;13.40;90.20;;;;;;5095281;28;19930;-71
2021/04/26 11:16:56;;;;;;;;;;;13.50;90.00;;;;;;5094261;28;19908;-71
2021/04/26 11:19:22;;;;;;;;;;;13.50;89.40;;;;;;5093603;28;19915;-72
2021/04/26 11:21:47;;;;;;;;;;;13.60;90.80;;;;;;5090946;28;20368;-72
2021/04/26 11:24:30;;;;;;;;;;;13.80;88.50;;;;;;5086944;28;19908;-76
2021/04/26 11:27:08;;;;;;;;;;;13.80;90.10;;;;;;5075582;28;20303;-74
2021/04/26 11:29:34;;;;;;;;;;;14.00;89.70;;;;;;5094114;28;19931;-74
2021/04/26 11:32:04;;;;;;;;;;;14.20;89.70;;;;;;5088550;28;19908;-74
2021/04/26 11:35:12;;;;;;;;;;;14.10;87.40;;;;;;5090007;28;20393;-75
2021/04/26 11:37:36;;;;;;;;;;;14.20;88.00;;;;;;5092031;28;19915;-76
2021/04/26 11:40:15;;;;;;;;;;;13.90;89.90;;;;;;5094350;28;19919;-75
2021/04/26 11:42:41;;;;;;;;;;;13.90;90.20;;;;;;5094051;28;19919;-75
2021/04/26 11:45:08;;;;;;;;;;;14.30;90.90;;;;;;5093920;28;20265;-76
2021/04/26 11:47:34;;;;;;;;;;;13.90;90.90;;;;;;5094067;28;20376;-76
2021/04/26 11:50:00;;;;;;;;;;;13.60;90.40;;;;;;5095166;28;19908;-74
2021/04/26 11:52:27;;;;;;;;;;;13.60;90.90;;;;;;5095464;28;19908;-75
2021/04/26 11:55:05;;;;;;;;;;;13.40;90.80;;;;;;5090063;28;19919;-76
2021/04/26 11:57:40;;;;;;;;;;;13.40;91.40;;;;;;5096571;28;19951;-73
2021/04/26 12:00:07;;;;;;;;;;;13.20;91.00;;;;;;5080508;28;19915;-74
2021/04/26 12:02:36;;;;;;;;;;;13.20;90.80;;;;;;5077205;28;19967;-74
2021/04/26 12:05:12;;;;;;;;;;;12.90;92.00;;;;;;5085641;28;19934;-74
2021/04/26 12:07:38;;;;;;;;;;;12.80;92.20;;;;;;5115053;28;19912;-76
2021/04/26 12:10:06;;;;;;;;;;;12.90;91.70;;;;;;5116166;28;19896;-74
2021/04/26 12:12:33;;;;;;;;;;;12.90;91.20;;;;;;5116447;28;19922;-74
2021/04/26 12:15:10;;;;;;;;;;;12.80;91.80;;;;;;5115968;28;19933;-76
2021/04/26 12:17:36;;;;;;;;;;;12.90;93.20;;;;;;5100609;28;19908;-76
2021/04/26 12:20:08;;;;;;;;;;;12.90;92.60;;;;;;5098746;28;19975;-75
2021/04/26 12:22:34;;;;;;;;;;;13.10;91.70;;;;;;5096675;28;20044;-73
2021/04/26 12:25:01;;;;;;;;;;;13.10;90.90;;;;;;5096692;28;19912;-76
2021/04/26 12:27:26;;;;;;;;;;;13.20;91.70;;;;;;5095771;28;19946;-76
2021/04/26 12:29:53;;;;;;;;;;;12.80;92.10;;;;;;5094716;28;19947;-76
2021/04/26 12:32:19;;;;;;;;;;;13.00;91.90;;;;;;5094358;28;19908;-75
2021/04/26 12:34:52;;;;;;;;;;;12.90;92.10;;;;;;5093929;28;19915;-72
2021/04/26 12:37:19;;;;;;;;;;;12.90;92.10;;;;;;5094372;28;19957;-71
2021/04/26 12:39:45;;;;;;;;;;;13.10;91.40;;;;;;5094611;28;19970;-72
2021/04/26 12:42:18;;;;;;;;;;;13.30;90.60;;;;;;5093583;28;19912;-71
2021/04/26 12:44:44;;;;;;;;;;;13.50;90.30;;;;;;5094804;28;19914;-71
2021/04/26 12:47:25;;;;;;;;;;;13.50;90.40;;;;;;5093504;28;19947;-71
2021/04/26 12:50:09;;;;;;;;;;;13.60;90.00;;;;;;5095075;28;19915;-77
2021/04/26 12:52:34;;;;;;;;;;;13.60;89.70;;;;;;5093779;28;20371;-71
2021/04/26 12:55:05;;;;;;;;;;;13.60;89.40;;;;;;5094820;28;19950;-77
2021/04/26 12:57:31;;;;;;;;;;;13.40;89.20;;;;;;5094484;28;19958;-73
2021/04/26 12:59:56;;;;;;;;;;;13.40;88.90;;;;;;5093613;28;19916;-75
2021/04/26 13:02:30;;;;;;;;;;;13.50;90.70;;;;;;5094389;28;19916;-74
2021/04/26 13:04:59;;;;;;;;;;;13.70;88.50;;;;;;5094650;28;19959;-73
2021/04/26 13:07:25;;;;;;;;;;;13.90;88.20;;;;;;5092988;28;20268;-74
2021/04/26 13:10:10;;;;;;;;;;;14.00;89.90;;;;;;5093041;28;20413;-76
2021/04/26 13:12:36;;;;;;;;;;;14.00;87.80;;;;;;5094274;28;19911;-77
2021/04/26 13:15:21;;;;;;;;;;;14.20;88.90;;;;;;5093401;28;20017;-77
2021/04/26 13:17:46;;;;;;;;;;;14.20;86.20;;;;;;5089698;28;19908;-74
2021/04/26 13:20:19;;;;;;;;;;;14.20;85.50;;;;;;5092081;28;20002;-78
2021/04/26 13:22:45;;;;;;;;;;;14.30;86.00;;;;;;5093750;28;19911;-76
2021/04/26 13:25:11;;;;;;;;;;;14.20;86.10;;;;;;5093181;28;20274;-75
2021/04/26 13:27:42;;;;;;;;;;;14.40;85.30;;;;;;5091115;28;19915;-76
2021/04/26 13:30:08;;;;;;;;;;;14.30;86.10;;;;;;5091394;28;19908;-75
2021/04/26 13:32:34;;;;;;;;;;;14.30;85.70;;;;;;5091606;28;19958;-74
2021/04/26 13:34:59;;;;;;;;;;;14.00;85.00;;;;;;5090948;28;20005;-75
2021/04/26 13:37:25;;;;;;;;;;;13.80;86.60;;;;;;5090495;28;19908;-75
2021/04/26 13:39:50;;;;;;;;;;;14.00;85.70;;;;;;5092381;28;19908;-77
2021/04/26 13:42:16;;;;;;;;;;;13.90;86.90;;;;;;5094299;28;19915;-76
2021/04/26 13:44:41;;;;;;;;;;;14.10;87.30;;;;;;5092917;28;19912;-77
2021/04/26 13:47:07;;;;;;;;;;;14.20;85.00;;;;;;5086756;28;20363;-76
2021/04/26 13:49:33;;;;;;;;;;;14.30;85.30;;;;;;5092278;28;19943;-73
2021/04/26 13:51:58;;;;;;;;;;;14.10;87.10;;;;;;5092450;28;19908;-74
2021/04/26 13:54:24;;;;;;;;;;;14.10;85.60;;;;;;5091399;28;19951;-73
2021/04/26 13:56:49;;;;;;;;;;;14.20;85.40;;;;;;5093643;28;19922;-72
2021/04/26 13:59:15;;;;;;;;;;;14.40;84.50;;;;;;5093403;28;19931;-73
2021/04/26 14:01:40;;;;;;;;;;;14.40;84.60;;;;;;5092421;28;19920;-73
2021/04/26 14:04:06;;;;;;;;;;;14.50;83.50;;;;;;5092835;28;19963;-74
2021/04/26 14:06:32;;;;;;;;;;;14.50;82.70;;;;;;5094679;28;19919;-73
2021/04/26 14:08:58;;;;;;;;;;;14.40;81.80;;;;;;5094216;28;19919;-73
2021/04/26 14:11:23;;;;;;;;;;;14.40;82.60;;;;;;5094574;28;20364;-73
2021/04/26 14:13:49;;;;;;;;;;;14.20;82.20;;;;;;5094109;28;20372;-73
2021/04/26 14:16:15;;;;;;;;;;;14.30;82.10;;;;;;5094352;28;20366;-73
2021/04/26 14:18:40;;;;;;;;;;;14.30;81.90;;;;;;5093843;28;19961;-73
2021/04/26 14:21:06;;;;;;;;;;;14.50;82.60;;;;;;5095622;28;19912;-73
2021/04/26 14:23:31;;;;;;;;;;;14.40;82.90;;;;;;5107471;28;19979;-73